sensor_id;sensor_type;location;lat;lon;timestamp;P1;durP1;ratioP1;P2;durP2;ratioP2
38717;SDS011;24468;52.128;9.278;2023-03-01T00:00:40;12.27;;;6.72;;
38717;SDS011;24468;52.128;9.278;2023-03-01T00:03:05;12.35;;;8.27;;
38717;SDS011;24468;52.128;9.278;2023-03-01T00:05:31;13.35;;;6.70;;
38717;SDS011;24468;52.128;9.278;2023-03-01T00:07:57;12.85;;;7.07;;
38717;SDS011;24468;52.128;9.278;2023-03-01T00:10:23;13.65;;;8.23;;
38717;SDS011;24468;52.128;9.278;2023-03-01T00:12:48;12.38;;;7.75;;
38717;SDS011;24468;52.128;9.278;2023-03-01T00:15:14;8.30;;;5.28;;
38717;SDS011;24468;52.128;9.278;2023-03-01T00:17:39;10.13;;;5.80;;
38717;SDS011;24468;52.128;9.278;2023-03-01T00:20:05;6.53;;;4.85;;
38717;SDS011;24468;52.128;9.278;2023-03-01T00:22:35;6.32;;;4.25;;
38717;SDS011;24468;52.128;9.278;2023-03-01T00:25:02;8.18;;;5.43;;
38717;SDS011;24468;52.128;9.278;2023-03-01T00:27:28;5.78;;;4.88;;
38717;SDS011;24468;52.128;9.278;2023-03-01T00:29:54;6.45;;;4.15;;
38717;SDS011;24468;52.128;9.278;2023-03-01T00:32:19;7.35;;;5.03;;
38717;SDS011;24468;52.128;9.278;2023-03-01T00:34:45;9.77;;;5.15;;
38717;SDS011;24468;52.128;9.278;2023-03-01T00:37:19;6.55;;;4.15;;
38717;SDS011;24468;52.128;9.278;2023-03-01T00:39:47;6.50;;;4.57;;
38717;SDS011;24468;52.128;9.278;2023-03-01T00:42:13;7.07;;;5.15;;
38717;SDS011;24468;52.128;9.278;2023-03-01T00:44:39;5.85;;;4.22;;
38717;SDS011;24468;52.128;9.278;2023-03-01T00:47:04;6.05;;;4.35;;
38717;SDS011;24468;52.128;9.278;2023-03-01T00:49:30;7.25;;;4.78;;
38717;SDS011;24468;52.128;9.278;2023-03-01T00:51:56;5.95;;;4.05;;
38717;SDS011;24468;52.128;9.278;2023-03-01T00:54:22;6.65;;;4.75;;
38717;SDS011;24468;52.128;9.278;2023-03-01T00:56:47;7.40;;;4.50;;
38717;SDS011;24468;52.128;9.278;2023-03-01T00:59:13;6.85;;;4.68;;
38717;SDS011;24468;52.128;9.278;2023-03-01T01:01:38;10.50;;;5.00;;
38717;SDS011;24468;52.128;9.278;2023-03-01T01:04:05;7.63;;;4.35;;
38717;SDS011;24468;52.128;9.278;2023-03-01T01:06:39;4.35;;;3.88;;
38717;SDS011;24468;52.128;9.278;2023-03-01T01:09:11;5.63;;;4.60;;
38717;SDS011;24468;52.128;9.278;2023-03-01T01:11:42;6.13;;;4.97;;
38717;SDS011;24468;52.128;9.278;2023-03-01T01:14:12;7.13;;;4.85;;
38717;SDS011;24468;52.128;9.278;2023-03-01T01:16:38;8.95;;;4.72;;
38717;SDS011;24468;52.128;9.278;2023-03-01T01:19:03;5.80;;;4.20;;
38717;SDS011;24468;52.128;9.278;2023-03-01T01:21:29;6.03;;;4.72;;
38717;SDS011;24468;52.128;9.278;2023-03-01T01:23:55;6.38;;;5.40;;
38717;SDS011;24468;52.128;9.278;2023-03-01T01:26:22;8.07;;;4.15;;
38717;SDS011;24468;52.128;9.278;2023-03-01T01:28:54;7.10;;;4.93;;
38717;SDS011;24468;52.128;9.278;2023-03-01T01:31:20;7.15;;;4.95;;
38717;SDS011;24468;52.128;9.278;2023-03-01T01:33:48;7.10;;;4.90;;
38717;SDS011;24468;52.128;9.278;2023-03-01T01:36:15;8.07;;;4.97;;
38717;SDS011;24468;52.128;9.278;2023-03-01T01:38:41;7.70;;;4.80;;
38717;SDS011;24468;52.128;9.278;2023-03-01T01:41:07;5.93;;;4.18;;
38717;SDS011;24468;52.128;9.278;2023-03-01T01:43:37;5.65;;;4.10;;
38717;SDS011;24468;52.128;9.278;2023-03-01T01:48:45;7.40;;;4.82;;
38717;SDS011;24468;52.128;9.278;2023-03-01T01:51:18;7.07;;;4.55;;
38717;SDS011;24468;52.128;9.278;2023-03-01T01:53:49;8.35;;;4.82;;
38717;SDS011;24468;52.128;9.278;2023-03-01T01:56:21;6.70;;;5.45;;
38717;SDS011;24468;52.128;9.278;2023-03-01T01:58:50;8.55;;;4.88;;
38717;SDS011;24468;52.128;9.278;2023-03-01T02:01:16;6.88;;;4.22;;
38717;SDS011;24468;52.128;9.278;2023-03-01T02:03:42;6.50;;;4.63;;
38717;SDS011;24468;52.128;9.278;2023-03-01T02:06:31;5.85;;;4.43;;
38717;SDS011;24468;52.128;9.278;2023-03-01T02:09:03;5.90;;;4.22;;
38717;SDS011;24468;52.128;9.278;2023-03-01T02:11:36;7.13;;;4.88;;
38717;SDS011;24468;52.128;9.278;2023-03-01T02:14:02;6.05;;;4.45;;
38717;SDS011;24468;52.128;9.278;2023-03-01T02:16:29;6.80;;;4.60;;
38717;SDS011;24468;52.128;9.278;2023-03-01T02:18:55;7.85;;;5.47;;
38717;SDS011;24468;52.128;9.278;2023-03-01T02:24:39;7.38;;;4.35;;
38717;SDS011;24468;52.128;9.278;2023-03-01T02:27:28;8.13;;;4.32;;
38717;SDS011;24468;52.128;9.278;2023-03-01T02:30:06;5.70;;;4.38;;
38717;SDS011;24468;52.128;9.278;2023-03-01T02:32:32;9.55;;;5.68;;
38717;SDS011;24468;52.128;9.278;2023-03-01T02:34:59;7.03;;;4.32;;
38717;SDS011;24468;52.128;9.278;2023-03-01T02:37:24;7.28;;;4.47;;
38717;SDS011;24468;52.128;9.278;2023-03-01T02:39:55;6.28;;;4.60;;
38717;SDS011;24468;52.128;9.278;2023-03-01T02:42:30;5.90;;;4.55;;
38717;SDS011;24468;52.128;9.278;2023-03-01T02:45:01;5.53;;;4.38;;
38717;SDS011;24468;52.128;9.278;2023-03-01T02:47:28;7.95;;;5.45;;
38717;SDS011;24468;52.128;9.278;2023-03-01T02:49:53;6.60;;;5.30;;
38717;SDS011;24468;52.128;9.278;2023-03-01T02:55:15;5.53;;;4.68;;
38717;SDS011;24468;52.128;9.278;2023-03-01T02:57:43;6.97;;;4.72;;
38717;SDS011;24468;52.128;9.278;2023-03-01T03:00:17;7.05;;;4.78;;
38717;SDS011;24468;52.128;9.278;2023-03-01T03:02:48;7.35;;;4.40;;
38717;SDS011;24468;52.128;9.278;2023-03-01T03:05:18;7.78;;;4.55;;
38717;SDS011;24468;52.128;9.278;2023-03-01T03:07:50;8.93;;;4.07;;
38717;SDS011;24468;52.128;9.278;2023-03-01T03:10:36;9.55;;;4.60;;
38717;SDS011;24468;52.128;9.278;2023-03-01T03:13:14;7.55;;;4.70;;
38717;SDS011;24468;52.128;9.278;2023-03-01T03:15:40;6.90;;;5.03;;
38717;SDS011;24468;52.128;9.278;2023-03-01T03:18:09;5.72;;;4.55;;
38717;SDS011;24468;52.128;9.278;2023-03-01T03:20:39;7.13;;;4.00;;
38717;SDS011;24468;52.128;9.278;2023-03-01T03:23:07;7.18;;;5.50;;
38717;SDS011;24468;52.128;9.278;2023-03-01T03:25:33;8.50;;;5.20;;
38717;SDS011;24468;52.128;9.278;2023-03-01T03:28:02;8.68;;;5.22;;
38717;SDS011;24468;52.128;9.278;2023-03-01T03:30:34;5.95;;;4.30;;
38717;SDS011;24468;52.128;9.278;2023-03-01T03:33:06;5.78;;;4.70;;
38717;SDS011;24468;52.128;9.278;2023-03-01T03:35:34;9.13;;;5.00;;
38717;SDS011;24468;52.128;9.278;2023-03-01T03:38:07;7.15;;;5.05;;
38717;SDS011;24468;52.128;9.278;2023-03-01T03:40:41;8.75;;;5.13;;
38717;SDS011;24468;52.128;9.278;2023-03-01T03:43:30;7.25;;;4.40;;
38717;SDS011;24468;52.128;9.278;2023-03-01T03:45:58;6.35;;;4.57;;
38717;SDS011;24468;52.128;9.278;2023-03-01T03:48:24;7.85;;;4.85;;
38717;SDS011;24468;52.128;9.278;2023-03-01T03:50:52;6.75;;;5.20;;
38717;SDS011;24468;52.128;9.278;2023-03-01T03:53:21;8.05;;;5.88;;
38717;SDS011;24468;52.128;9.278;2023-03-01T03:55:49;6.95;;;5.22;;
38717;SDS011;24468;52.128;9.278;2023-03-01T03:58:14;6.65;;;5.03;;
38717;SDS011;24468;52.128;9.278;2023-03-01T04:00:44;5.55;;;4.90;;
38717;SDS011;24468;52.128;9.278;2023-03-01T04:03:11;9.38;;;4.68;;
38717;SDS011;24468;52.128;9.278;2023-03-01T04:05:39;7.47;;;4.93;;
38717;SDS011;24468;52.128;9.278;2023-03-01T04:08:07;6.50;;;5.57;;
38717;SDS011;24468;52.128;9.278;2023-03-01T04:10:34;8.45;;;5.40;;
38717;SDS011;24468;52.128;9.278;2023-03-01T04:13:13;8.10;;;4.80;;
38717;SDS011;24468;52.128;9.278;2023-03-01T04:15:42;5.47;;;4.30;;
38717;SDS011;24468;52.128;9.278;2023-03-01T04:18:08;10.13;;;4.97;;
38717;SDS011;24468;52.128;9.278;2023-03-01T04:20:37;8.55;;;6.07;;
38717;SDS011;24468;52.128;9.278;2023-03-01T04:25:41;6.72;;;4.72;;
38717;SDS011;24468;52.128;9.278;2023-03-01T04:28:09;6.90;;;5.53;;
38717;SDS011;24468;52.128;9.278;2023-03-01T04:30:35;9.75;;;6.28;;
38717;SDS011;24468;52.128;9.278;2023-03-01T04:33:04;9.93;;;7.60;;
38717;SDS011;24468;52.128;9.278;2023-03-01T04:35:31;9.85;;;6.28;;
38717;SDS011;24468;52.128;9.278;2023-03-01T04:37:57;8.25;;;6.40;;
38717;SDS011;24468;52.128;9.278;2023-03-01T04:40:23;9.95;;;6.32;;
38717;SDS011;24468;52.128;9.278;2023-03-01T04:42:49;10.88;;;6.82;;
38717;SDS011;24468;52.128;9.278;2023-03-01T04:45:14;9.95;;;5.63;;
38717;SDS011;24468;52.128;9.278;2023-03-01T04:47:40;10.90;;;6.88;;
38717;SDS011;24468;52.128;9.278;2023-03-01T04:50:11;10.20;;;8.05;;
38717;SDS011;24468;52.128;9.278;2023-03-01T04:52:40;14.25;;;6.97;;
38717;SDS011;24468;52.128;9.278;2023-03-01T04:55:07;13.38;;;6.78;;
38717;SDS011;24468;52.128;9.278;2023-03-01T04:57:34;9.73;;;6.97;;
38717;SDS011;24468;52.128;9.278;2023-03-01T05:00:00;9.68;;;6.53;;
38717;SDS011;24468;52.128;9.278;2023-03-01T05:02:25;7.22;;;5.28;;
38717;SDS011;24468;52.128;9.278;2023-03-01T05:04:51;8.10;;;6.30;;
38717;SDS011;24468;52.128;9.278;2023-03-01T05:07:17;7.18;;;5.50;;
38717;SDS011;24468;52.128;9.278;2023-03-01T05:09:46;7.03;;;5.55;;
38717;SDS011;24468;52.128;9.278;2023-03-01T05:12:12;10.45;;;5.30;;
38717;SDS011;24468;52.128;9.278;2023-03-01T05:14:38;7.50;;;5.22;;
38717;SDS011;24468;52.128;9.278;2023-03-01T05:17:04;6.70;;;5.03;;
38717;SDS011;24468;52.128;9.278;2023-03-01T05:19:31;7.43;;;4.95;;
38717;SDS011;24468;52.128;9.278;2023-03-01T05:21:57;9.93;;;6.03;;
38717;SDS011;24468;52.128;9.278;2023-03-01T05:24:26;7.70;;;5.97;;
38717;SDS011;24468;52.128;9.278;2023-03-01T05:26:53;8.18;;;5.45;;
38717;SDS011;24468;52.128;9.278;2023-03-01T05:29:19;10.45;;;6.70;;
38717;SDS011;24468;52.128;9.278;2023-03-01T05:31:52;8.48;;;5.53;;
38717;SDS011;24468;52.128;9.278;2023-03-01T05:34:26;8.50;;;5.47;;
38717;SDS011;24468;52.128;9.278;2023-03-01T05:36:57;9.73;;;5.93;;
38717;SDS011;24468;52.128;9.278;2023-03-01T05:39:24;7.70;;;5.68;;
38717;SDS011;24468;52.128;9.278;2023-03-01T05:41:52;7.35;;;5.60;;
38717;SDS011;24468;52.128;9.278;2023-03-01T05:44:23;6.18;;;5.10;;
38717;SDS011;24468;52.128;9.278;2023-03-01T05:46:49;7.60;;;4.75;;
38717;SDS011;24468;52.128;9.278;2023-03-01T05:49:15;8.82;;;4.78;;
38717;SDS011;24468;52.128;9.278;2023-03-01T05:51:41;6.75;;;5.65;;
38717;SDS011;24468;52.128;9.278;2023-03-01T05:54:11;7.30;;;5.07;;
38717;SDS011;24468;52.128;9.278;2023-03-01T05:56:37;6.40;;;4.90;;
38717;SDS011;24468;52.128;9.278;2023-03-01T05:59:03;10.48;;;5.43;;
38717;SDS011;24468;52.128;9.278;2023-03-01T06:01:30;7.97;;;5.93;;
38717;SDS011;24468;52.128;9.278;2023-03-01T06:03:59;14.60;;;8.25;;
38717;SDS011;24468;52.128;9.278;2023-03-01T06:06:25;12.32;;;8.13;;
38717;SDS011;24468;52.128;9.278;2023-03-01T06:08:51;11.80;;;8.07;;
38717;SDS011;24468;52.128;9.278;2023-03-01T06:11:18;11.95;;;8.75;;
38717;SDS011;24468;52.128;9.278;2023-03-01T06:13:45;13.70;;;7.90;;
38717;SDS011;24468;52.128;9.278;2023-03-01T06:16:11;10.13;;;6.78;;
38717;SDS011;24468;52.128;9.278;2023-03-01T06:18:38;13.55;;;6.90;;
38717;SDS011;24468;52.128;9.278;2023-03-01T06:21:04;13.60;;;8.95;;
38717;SDS011;24468;52.128;9.278;2023-03-01T06:23:31;12.05;;;7.97;;
38717;SDS011;24468;52.128;9.278;2023-03-01T06:25:57;15.68;;;9.15;;
38717;SDS011;24468;52.128;9.278;2023-03-01T06:28:23;14.93;;;9.35;;
38717;SDS011;24468;52.128;9.278;2023-03-01T06:30:49;16.80;;;10.45;;
38717;SDS011;24468;52.128;9.278;2023-03-01T06:33:16;13.23;;;9.73;;
38717;SDS011;24468;52.128;9.278;2023-03-01T06:35:44;13.35;;;10.02;;
38717;SDS011;24468;52.128;9.278;2023-03-01T06:38:11;17.15;;;10.95;;
38717;SDS011;24468;52.128;9.278;2023-03-01T06:40:40;16.65;;;9.07;;
38717;SDS011;24468;52.128;9.278;2023-03-01T06:43:05;10.82;;;7.90;;
38717;SDS011;24468;52.128;9.278;2023-03-01T06:45:32;10.55;;;7.88;;
38717;SDS011;24468;52.128;9.278;2023-03-01T06:48:02;12.60;;;8.35;;
38717;SDS011;24468;52.128;9.278;2023-03-01T06:50:29;8.70;;;6.05;;
38717;SDS011;24468;52.128;9.278;2023-03-01T06:52:56;10.35;;;7.40;;
38717;SDS011;24468;52.128;9.278;2023-03-01T06:55:22;16.38;;;9.75;;
38717;SDS011;24468;52.128;9.278;2023-03-01T06:57:48;10.52;;;7.35;;
38717;SDS011;24468;52.128;9.278;2023-03-01T07:00:13;12.95;;;8.13;;
38717;SDS011;24468;52.128;9.278;2023-03-01T07:02:39;16.95;;;10.85;;
38717;SDS011;24468;52.128;9.278;2023-03-01T07:05:05;10.27;;;7.07;;
38717;SDS011;24468;52.128;9.278;2023-03-01T07:07:31;10.57;;;7.22;;
38717;SDS011;24468;52.128;9.278;2023-03-01T07:09:57;9.60;;;7.57;;
38717;SDS011;24468;52.128;9.278;2023-03-01T07:12:22;17.58;;;10.90;;
38717;SDS011;24468;52.128;9.278;2023-03-01T07:14:48;16.77;;;9.88;;
38717;SDS011;24468;52.128;9.278;2023-03-01T07:17:13;14.93;;;9.18;;
38717;SDS011;24468;52.128;9.278;2023-03-01T07:19:39;18.23;;;10.98;;
38717;SDS011;24468;52.128;9.278;2023-03-01T07:22:04;18.77;;;11.38;;
38717;SDS011;24468;52.128;9.278;2023-03-01T07:24:32;13.27;;;9.98;;
38717;SDS011;24468;52.128;9.278;2023-03-01T07:26:58;12.15;;;8.13;;
38717;SDS011;24468;52.128;9.278;2023-03-01T07:29:24;10.63;;;7.25;;
38717;SDS011;24468;52.128;9.278;2023-03-01T07:31:49;16.58;;;7.68;;
38717;SDS011;24468;52.128;9.278;2023-03-01T07:34:15;8.25;;;6.57;;
38717;SDS011;24468;52.128;9.278;2023-03-01T07:36:40;10.60;;;7.45;;
38717;SDS011;24468;52.128;9.278;2023-03-01T07:39:08;11.50;;;7.85;;
38717;SDS011;24468;52.128;9.278;2023-03-01T07:41:35;13.82;;;7.88;;
38717;SDS011;24468;52.128;9.278;2023-03-01T07:44:00;10.23;;;7.32;;
38717;SDS011;24468;52.128;9.278;2023-03-01T07:46:26;11.20;;;6.88;;
38717;SDS011;24468;52.128;9.278;2023-03-01T07:48:51;9.90;;;7.28;;
38717;SDS011;24468;52.128;9.278;2023-03-01T07:51:17;9.20;;;6.88;;
38717;SDS011;24468;52.128;9.278;2023-03-01T07:53:45;12.68;;;8.20;;
38717;SDS011;24468;52.128;9.278;2023-03-01T07:56:13;11.52;;;7.82;;
38717;SDS011;24468;52.128;9.278;2023-03-01T07:58:41;14.00;;;7.65;;
38717;SDS011;24468;52.128;9.278;2023-03-01T08:01:09;9.13;;;7.00;;
38717;SDS011;24468;52.128;9.278;2023-03-01T08:03:39;12.73;;;8.48;;
38717;SDS011;24468;52.128;9.278;2023-03-01T08:06:06;9.85;;;7.45;;
38717;SDS011;24468;52.128;9.278;2023-03-01T08:08:34;8.90;;;7.10;;
38717;SDS011;24468;52.128;9.278;2023-03-01T08:11:01;12.02;;;7.88;;
38717;SDS011;24468;52.128;9.278;2023-03-01T08:13:29;13.00;;;8.57;;
38717;SDS011;24468;52.128;9.278;2023-03-01T08:16:00;11.38;;;7.85;;
38717;SDS011;24468;52.128;9.278;2023-03-01T08:18:31;10.57;;;7.78;;
38717;SDS011;24468;52.128;9.278;2023-03-01T08:21:07;7.85;;;6.43;;
38717;SDS011;24468;52.128;9.278;2023-03-01T08:23:36;9.75;;;7.78;;
38717;SDS011;24468;52.128;9.278;2023-03-01T08:28:35;10.02;;;6.57;;
38717;SDS011;24468;52.128;9.278;2023-03-01T08:31:01;9.10;;;7.10;;
38717;SDS011;24468;52.128;9.278;2023-03-01T08:33:27;13.23;;;8.95;;
38717;SDS011;24468;52.128;9.278;2023-03-01T08:36:01;12.32;;;8.38;;
38717;SDS011;24468;52.128;9.278;2023-03-01T08:38:31;12.82;;;9.18;;
38717;SDS011;24468;52.128;9.278;2023-03-01T08:40:59;13.00;;;8.68;;
38717;SDS011;24468;52.128;9.278;2023-03-01T08:43:26;10.68;;;8.48;;
38717;SDS011;24468;52.128;9.278;2023-03-01T08:45:52;13.55;;;8.93;;
38717;SDS011;24468;52.128;9.278;2023-03-01T08:48:17;11.82;;;9.07;;
38717;SDS011;24468;52.128;9.278;2023-03-01T08:50:43;10.68;;;8.82;;
38717;SDS011;24468;52.128;9.278;2023-03-01T08:53:08;13.57;;;9.77;;
38717;SDS011;24468;52.128;9.278;2023-03-01T08:55:33;13.68;;;9.88;;
38717;SDS011;24468;52.128;9.278;2023-03-01T08:57:59;15.93;;;9.27;;
38717;SDS011;24468;52.128;9.278;2023-03-01T09:00:25;14.73;;;9.77;;
38717;SDS011;24468;52.128;9.278;2023-03-01T09:02:50;15.25;;;9.23;;
38717;SDS011;24468;52.128;9.278;2023-03-01T09:05:16;14.40;;;8.98;;
38717;SDS011;24468;52.128;9.278;2023-03-01T09:07:41;11.00;;;7.95;;
38717;SDS011;24468;52.128;9.278;2023-03-01T09:10:07;10.63;;;8.50;;
38717;SDS011;24468;52.128;9.278;2023-03-01T09:12:33;14.23;;;9.15;;
38717;SDS011;24468;52.128;9.278;2023-03-01T09:14:59;14.07;;;9.35;;
38717;SDS011;24468;52.128;9.278;2023-03-01T09:17:25;14.45;;;9.63;;
38717;SDS011;24468;52.128;9.278;2023-03-01T09:19:50;15.13;;;9.65;;
38717;SDS011;24468;52.128;9.278;2023-03-01T09:22:16;14.45;;;9.23;;
38717;SDS011;24468;52.128;9.278;2023-03-01T09:24:41;16.65;;;9.20;;
38717;SDS011;24468;52.128;9.278;2023-03-01T09:27:07;11.00;;;8.15;;
38717;SDS011;24468;52.128;9.278;2023-03-01T09:29:33;11.93;;;8.15;;
38717;SDS011;24468;52.128;9.278;2023-03-01T09:32:02;12.95;;;8.70;;
38717;SDS011;24468;52.128;9.278;2023-03-01T09:34:28;13.65;;;8.60;;
38717;SDS011;24468;52.128;9.278;2023-03-01T09:36:53;12.32;;;8.50;;
38717;SDS011;24468;52.128;9.278;2023-03-01T09:39:19;13.52;;;8.20;;
38717;SDS011;24468;52.128;9.278;2023-03-01T09:44:48;11.45;;;8.63;;
38717;SDS011;24468;52.128;9.278;2023-03-01T09:47:30;10.02;;;6.90;;
38717;SDS011;24468;52.128;9.278;2023-03-01T09:55:08;9.93;;;7.18;;
38717;SDS011;24468;52.128;9.278;2023-03-01T09:57:43;12.30;;;7.10;;
38717;SDS011;24468;52.128;9.278;2023-03-01T10:02:57;9.10;;;7.18;;
38717;SDS011;24468;52.128;9.278;2023-03-01T10:05:49;9.32;;;6.63;;
38717;SDS011;24468;52.128;9.278;2023-03-01T10:08:31;6.82;;;5.75;;
38717;SDS011;24468;52.128;9.278;2023-03-01T10:16:51;10.32;;;6.45;;
38717;SDS011;24468;52.128;9.278;2023-03-01T10:19:28;8.05;;;6.03;;
38717;SDS011;24468;52.128;9.278;2023-03-01T10:22:11;10.77;;;5.45;;
38717;SDS011;24468;52.128;9.278;2023-03-01T10:24:53;6.95;;;4.18;;
38717;SDS011;24468;52.128;9.278;2023-03-01T10:27:24;6.10;;;4.30;;
38717;SDS011;24468;52.128;9.278;2023-03-01T10:32:30;9.18;;;4.63;;
38717;SDS011;24468;52.128;9.278;2023-03-01T10:34:56;6.72;;;4.07;;
38717;SDS011;24468;52.128;9.278;2023-03-01T10:37:22;6.82;;;4.43;;
38717;SDS011;24468;52.128;9.278;2023-03-01T10:42:34;6.00;;;4.25;;
38717;SDS011;24468;52.128;9.278;2023-03-01T10:48:03;7.40;;;4.50;;
38717;SDS011;24468;52.128;9.278;2023-03-01T10:51:12;8.80;;;4.43;;
38717;SDS011;24468;52.128;9.278;2023-03-01T10:53:43;8.10;;;4.65;;
38717;SDS011;24468;52.128;9.278;2023-03-01T10:56:15;7.00;;;4.53;;
38717;SDS011;24468;52.128;9.278;2023-03-01T10:59:00;6.72;;;4.28;;
38717;SDS011;24468;52.128;9.278;2023-03-01T11:01:31;7.18;;;4.68;;
38717;SDS011;24468;52.128;9.278;2023-03-01T11:06:30;5.75;;;4.60;;
38717;SDS011;24468;52.128;9.278;2023-03-01T11:08:56;7.55;;;4.72;;
38717;SDS011;24468;52.128;9.278;2023-03-01T11:14:05;6.10;;;4.10;;
38717;SDS011;24468;52.128;9.278;2023-03-01T11:16:47;5.97;;;4.32;;
38717;SDS011;24468;52.128;9.278;2023-03-01T11:19:23;5.30;;;3.85;;
38717;SDS011;24468;52.128;9.278;2023-03-01T11:22:03;7.28;;;4.40;;
38717;SDS011;24468;52.128;9.278;2023-03-01T11:24:51;7.00;;;4.70;;
38717;SDS011;24468;52.128;9.278;2023-03-01T11:27:33;7.97;;;4.32;;
38717;SDS011;24468;52.128;9.278;2023-03-01T11:35:34;5.90;;;4.47;;
38717;SDS011;24468;52.128;9.278;2023-03-01T11:40:57;6.68;;;4.35;;
38717;SDS011;24468;52.128;9.278;2023-03-01T11:43:43;7.25;;;4.10;;
38717;SDS011;24468;52.128;9.278;2023-03-01T11:46:44;5.22;;;3.80;;
38717;SDS011;24468;52.128;9.278;2023-03-01T12:01:25;8.15;;;4.63;;
38717;SDS011;24468;52.128;9.278;2023-03-01T12:11:02;8.32;;;3.67;;
38717;SDS011;24468;52.128;9.278;2023-03-01T12:16:46;5.78;;;3.63;;
38717;SDS011;24468;52.128;9.278;2023-03-01T12:26:16;6.95;;;4.38;;
38717;SDS011;24468;52.128;9.278;2023-03-01T12:32:09;7.40;;;4.65;;
38717;SDS011;24468;52.128;9.278;2023-03-01T12:50:41;6.88;;;3.28;;
38717;SDS011;24468;52.128;9.278;2023-03-01T12:53:21;3.75;;;3.20;;
38717;SDS011;24468;52.128;9.278;2023-03-01T12:55:59;5.47;;;4.00;;
38717;SDS011;24468;52.128;9.278;2023-03-01T12:58:39;6.03;;;3.80;;
38717;SDS011;24468;52.128;9.278;2023-03-01T13:15:36;6.85;;;4.93;;
38717;SDS011;24468;52.128;9.278;2023-03-01T13:18:27;7.05;;;4.57;;
38717;SDS011;24468;52.128;9.278;2023-03-01T13:20:53;5.07;;;3.70;;
38717;SDS011;24468;52.128;9.278;2023-03-01T13:31:03;6.03;;;3.75;;
38717;SDS011;24468;52.128;9.278;2023-03-01T13:35:59;5.55;;;3.72;;
38717;SDS011;24468;52.128;9.278;2023-03-01T13:41:14;6.10;;;3.83;;
38717;SDS011;24468;52.128;9.278;2023-03-01T13:44:01;9.60;;;4.65;;
38717;SDS011;24468;52.128;9.278;2023-03-01T13:46:36;6.63;;;3.70;;
38717;SDS011;24468;52.128;9.278;2023-03-01T13:49:03;4.57;;;3.08;;
38717;SDS011;24468;52.128;9.278;2023-03-01T13:51:28;7.55;;;4.20;;
38717;SDS011;24468;52.128;9.278;2023-03-01T13:53:55;6.35;;;3.63;;
38717;SDS011;24468;52.128;9.278;2023-03-01T13:56:33;8.80;;;4.35;;
38717;SDS011;24468;52.128;9.278;2023-03-01T13:59:04;5.57;;;3.47;;
38717;SDS011;24468;52.128;9.278;2023-03-01T14:01:40;4.80;;;3.80;;
38717;SDS011;24468;52.128;9.278;2023-03-01T14:07:18;6.53;;;3.75;;
38717;SDS011;24468;52.128;9.278;2023-03-01T14:09:47;5.35;;;3.67;;
38717;SDS011;24468;52.128;9.278;2023-03-01T14:15:18;5.75;;;3.65;;
38717;SDS011;24468;52.128;9.278;2023-03-01T14:20:43;5.57;;;3.47;;
38717;SDS011;24468;52.128;9.278;2023-03-01T14:23:17;3.63;;;2.80;;
38717;SDS011;24468;52.128;9.278;2023-03-01T14:25:57;4.80;;;2.63;;
38717;SDS011;24468;52.128;9.278;2023-03-01T14:28:24;4.97;;;3.20;;
38717;SDS011;24468;52.128;9.278;2023-03-01T14:30:58;4.82;;;2.92;;
38717;SDS011;24468;52.128;9.278;2023-03-01T14:33:29;7.07;;;3.10;;
38717;SDS011;24468;52.128;9.278;2023-03-01T14:36:09;6.40;;;3.40;;
38717;SDS011;24468;52.128;9.278;2023-03-01T14:38:41;4.18;;;3.25;;
38717;SDS011;24468;52.128;9.278;2023-03-01T14:41:21;7.00;;;3.70;;
38717;SDS011;24468;52.128;9.278;2023-03-01T14:43:56;6.15;;;3.55;;
38717;SDS011;24468;52.128;9.278;2023-03-01T14:46:33;4.72;;;3.17;;
38717;SDS011;24468;52.128;9.278;2023-03-01T14:49:26;4.57;;;3.33;;
38717;SDS011;24468;52.128;9.278;2023-03-01T14:52:02;5.43;;;3.20;;
38717;SDS011;24468;52.128;9.278;2023-03-01T14:54:39;6.57;;;3.10;;
38717;SDS011;24468;52.128;9.278;2023-03-01T14:57:20;4.13;;;2.90;;
38717;SDS011;24468;52.128;9.278;2023-03-01T14:59:51;5.80;;;3.05;;
38717;SDS011;24468;52.128;9.278;2023-03-01T15:02:29;4.30;;;2.88;;
38717;SDS011;24468;52.128;9.278;2023-03-01T15:04:56;4.72;;;2.97;;
38717;SDS011;24468;52.128;9.278;2023-03-01T15:07:33;4.93;;;3.10;;
38717;SDS011;24468;52.128;9.278;2023-03-01T15:10:04;4.50;;;3.33;;
38717;SDS011;24468;52.128;9.278;2023-03-01T15:12:41;6.13;;;2.80;;
38717;SDS011;24468;52.128;9.278;2023-03-01T15:18:21;5.25;;;3.22;;
38717;SDS011;24468;52.128;9.278;2023-03-01T15:20:52;4.07;;;3.15;;
38717;SDS011;24468;52.128;9.278;2023-03-01T15:23:25;5.28;;;3.67;;
38717;SDS011;24468;52.128;9.278;2023-03-01T15:25:54;6.10;;;3.70;;
38717;SDS011;24468;52.128;9.278;2023-03-01T15:28:22;8.02;;;3.50;;
38717;SDS011;24468;52.128;9.278;2023-03-01T15:30:55;3.85;;;2.95;;
38717;SDS011;24468;52.128;9.278;2023-03-01T15:33:30;5.18;;;3.75;;
38717;SDS011;24468;52.128;9.278;2023-03-01T15:36:03;4.60;;;3.30;;
38717;SDS011;24468;52.128;9.278;2023-03-01T15:39:05;6.65;;;3.10;;
38717;SDS011;24468;52.128;9.278;2023-03-01T15:42:02;5.10;;;3.25;;
38717;SDS011;24468;52.128;9.278;2023-03-01T15:44:33;7.75;;;4.53;;
38717;SDS011;24468;52.128;9.278;2023-03-01T15:47:01;7.03;;;4.28;;
38717;SDS011;24468;52.128;9.278;2023-03-01T15:49:35;5.28;;;4.25;;
38717;SDS011;24468;52.128;9.278;2023-03-01T15:52:04;5.90;;;4.63;;
38717;SDS011;24468;52.128;9.278;2023-03-01T15:54:38;6.13;;;4.18;;
38717;SDS011;24468;52.128;9.278;2023-03-01T15:57:08;7.40;;;4.70;;
38717;SDS011;24468;52.128;9.278;2023-03-01T15:59:38;6.50;;;4.30;;
38717;SDS011;24468;52.128;9.278;2023-03-01T16:02:08;6.20;;;4.25;;
38717;SDS011;24468;52.128;9.278;2023-03-01T16:04:37;5.50;;;3.97;;
38717;SDS011;24468;52.128;9.278;2023-03-01T16:07:03;5.18;;;3.67;;
38717;SDS011;24468;52.128;9.278;2023-03-01T16:09:28;8.27;;;4.07;;
38717;SDS011;24468;52.128;9.278;2023-03-01T16:11:54;8.88;;;3.90;;
38717;SDS011;24468;52.128;9.278;2023-03-01T16:14:20;4.05;;;3.28;;
38717;SDS011;24468;52.128;9.278;2023-03-01T16:16:46;5.60;;;3.28;;
38717;SDS011;24468;52.128;9.278;2023-03-01T16:19:13;5.07;;;2.95;;
38717;SDS011;24468;52.128;9.278;2023-03-01T16:21:39;8.35;;;4.68;;
38717;SDS011;24468;52.128;9.278;2023-03-01T16:24:07;8.10;;;4.35;;
38717;SDS011;24468;52.128;9.278;2023-03-01T16:26:33;8.38;;;5.57;;
38717;SDS011;24468;52.128;9.278;2023-03-01T16:28:59;4.20;;;3.03;;
38717;SDS011;24468;52.128;9.278;2023-03-01T16:31:24;4.97;;;3.70;;
38717;SDS011;24468;52.128;9.278;2023-03-01T16:33:57;4.78;;;3.90;;
38717;SDS011;24468;52.128;9.278;2023-03-01T16:36:25;5.30;;;3.50;;
38717;SDS011;24468;52.128;9.278;2023-03-01T16:38:53;6.30;;;4.88;;
38717;SDS011;24468;52.128;9.278;2023-03-01T16:41:21;9.02;;;6.88;;
38717;SDS011;24468;52.128;9.278;2023-03-01T16:43:48;9.55;;;7.00;;
38717;SDS011;24468;52.128;9.278;2023-03-01T16:46:25;8.25;;;6.20;;
38717;SDS011;24468;52.128;9.278;2023-03-01T16:48:53;5.18;;;4.05;;
38717;SDS011;24468;52.128;9.278;2023-03-01T16:51:20;11.07;;;6.68;;
38717;SDS011;24468;52.128;9.278;2023-03-01T16:53:47;5.35;;;3.63;;
38717;SDS011;24468;52.128;9.278;2023-03-01T16:56:14;5.90;;;3.90;;
38717;SDS011;24468;52.128;9.278;2023-03-01T16:58:40;12.93;;;8.05;;
38717;SDS011;24468;52.128;9.278;2023-03-01T17:01:11;11.18;;;7.15;;
38717;SDS011;24468;52.128;9.278;2023-03-01T17:03:38;9.18;;;4.57;;
38717;SDS011;24468;52.128;9.278;2023-03-01T17:06:06;4.32;;;3.25;;
38717;SDS011;24468;52.128;9.278;2023-03-01T17:08:35;5.57;;;3.50;;
38717;SDS011;24468;52.128;9.278;2023-03-01T17:11:03;4.57;;;3.40;;
38717;SDS011;24468;52.128;9.278;2023-03-01T17:13:34;5.32;;;3.70;;
38717;SDS011;24468;52.128;9.278;2023-03-01T17:16:02;9.30;;;6.05;;
38717;SDS011;24468;52.128;9.278;2023-03-01T17:18:32;8.60;;;5.75;;